Pagina principale
METAR-TAF:

METAR-TAF

Aeroporti :

Piacenza, Italia

Aeroporto di Piacenza-San Damiano

latitudine: 44-55N, longitudine: 009-44E, altezza: 134 m

Osservazione

Il bollettino è stato emesso 49 minuti fa, alle 05:55 UTC
Vento 6 kt da nord/nord-ovest
Temperature 18°C
Umidità 73%
Pressione 1005 hPa
Visibilità 10 km o più
Nubi sparse ad un'altezza di 8000 ft

METAR: LIMS 260555Z 34006KT 9999 SCT080 18/13 Q1005 RMK BKN SCT170 VIS MIN 9999 WIND THR30 24006KT BLU

Ora: 08:44 (06:44 UTC)

Previsione

Il bollettino è stato emesso 1 ora e 44 minuti fa, alle 05:00 UTC
Previsione valida dal 26 alle 06 UTC al 26 alle 15 UTC
Vento 8 kt da nord/nord-ovest
Visibilità 10 km o più
nessuna nube inferiore a 1500 m e nessun cumulonembo

TAF: LIMS 260500Z 2606/2615 33008KT CAVOK

Osservazioni e previsioni meteorologiche di più di 4000 aeroporti (messaggi METAR e TAF).

Le stazioni disponibili sono rappresentate dai dischi gialli e rossi sulla carta.

Puntare il mouse per vedere il nome della stazione.

Clicca sopra per visualizzare le osservazioni e previsioni meteorologiche.

Per cambiare la mappa : fare clic sui pulsanti verdi con una croce nera per ingrandire, il pulsante verde con un trattino per diminuire, o sulla freccia verde per le mappe adiacenti.


METAR-TAF: